Pagina principale
METAR-TAF:

METAR-TAF

Aeroporti :

Sion, Svizzera

latitudine: 46-13N, longitudine: 007-20E, altezza: 482 m

Osservazione

Il bollettino è stato emesso 14 minuti fa, alle 05:20 UTC
Vento 4 kt da est/nord-est
Temperature 0°C
Umidità 74%
Pressione 1024 hPa
Visibilità 10 km o più
nessuna nube inferiore a 1500 m e nessun cumulonembo

METAR: LSGS 200520Z AUTO 07004KT CAVOK 00/M04 Q1024

Ora: 06:34 (05:34 UTC)

Previsione

Il bollettino è stato emesso 15 ore e 9 minuti fa, alle 14:25 UTC
Previsione valida dal 19 alle 15 UTC al 19 alle 24 UTC
Vento 12 kt da sud-ovest
Visibilità 10 km o più
nessuna nube inferiore a 1500 m e nessun cumulonembo
Evoluzione graduale
dal 19 alle 17 UTC al 19 alle 19 UTC
Vento 2 kt da direzioni variabili

TAF: LSGS 191425Z 1915/1924 22012KT CAVOK BECMG 1917/1919 VRB02KT

Osservazioni e previsioni meteorologiche di più di 4000 aeroporti (messaggi METAR e TAF).

Le stazioni disponibili sono rappresentate dai dischi gialli e rossi sulla carta.

Puntare il mouse per vedere il nome della stazione.

Clicca sopra per visualizzare le osservazioni e previsioni meteorologiche.

Per cambiare la mappa : fare clic sui pulsanti verdi con una croce nera per ingrandire, il pulsante verde con un trattino per diminuire, o sulla freccia verde per le mappe adiacenti.


METAR-TAF: